sensor_id;sensor_type;location;lat;lon;timestamp;pressure;altitude;pressure_sealevel;temperature;humidity
47716;BME280;33476;50.984;3.538;2022-09-14T00:01:21;100829.50;;;20.81;70.49
47716;BME280;33476;50.984;3.538;2022-09-14T00:03:51;100827.25;;;20.76;70.57
47716;BME280;33476;50.984;3.538;2022-09-14T00:06:17;100822.66;;;20.79;70.58
47716;BME280;33476;50.984;3.538;2022-09-14T00:08:42;100830.78;;;20.77;70.85
47716;BME280;33476;50.984;3.538;2022-09-14T00:11:10;100819.72;;;20.72;70.85
47716;BME280;33476;50.984;3.538;2022-09-14T00:13:37;100818.44;;;20.76;70.76
47716;BME280;33476;50.984;3.538;2022-09-14T00:16:06;100813.88;;;20.78;70.65
47716;BME280;33476;50.984;3.538;2022-09-14T00:18:34;100810.63;;;20.74;70.59
47716;BME280;33476;50.984;3.538;2022-09-14T00:21:06;100803.22;;;20.68;70.57
47716;BME280;33476;50.984;3.538;2022-09-14T00:23:34;100806.00;;;20.67;70.79
47716;BME280;33476;50.984;3.538;2022-09-14T00:26:05;100800.72;;;20.67;70.83
47716;BME280;33476;50.984;3.538;2022-09-14T00:28:35;100801.69;;;20.66;71.12
47716;BME280;33476;50.984;3.538;2022-09-14T00:31:03;100794.00;;;20.63;70.94
47716;BME280;33476;50.984;3.538;2022-09-14T00:33:28;100790.38;;;20.64;71.12
47716;BME280;33476;50.984;3.538;2022-09-14T00:35:53;100789.41;;;20.65;70.82
47716;BME280;33476;50.984;3.538;2022-09-14T00:38:19;100789.00;;;20.69;70.51
47716;BME280;33476;50.984;3.538;2022-09-14T00:40:44;100789.94;;;20.68;70.33
47716;BME280;33476;50.984;3.538;2022-09-14T00:43:13;100787.44;;;20.67;70.52
47716;BME280;33476;50.984;3.538;2022-09-14T00:45:40;100774.88;;;20.69;70.37
47716;BME280;33476;50.984;3.538;2022-09-14T00:48:05;100780.31;;;20.67;70.34
47716;BME280;33476;50.984;3.538;2022-09-14T00:50:31;100767.19;;;20.66;70.53
47716;BME280;33476;50.984;3.538;2022-09-14T00:52:57;100752.53;;;20.62;70.77
47716;BME280;33476;50.984;3.538;2022-09-14T00:55:22;100754.63;;;20.58;70.93
47716;BME280;33476;50.984;3.538;2022-09-14T00:57:51;100749.44;;;20.57;70.67
47716;BME280;33476;50.984;3.538;2022-09-14T01:00:23;100752.94;;;20.57;70.44
47716;BME280;33476;50.984;3.538;2022-09-14T01:02:49;100747.22;;;20.62;70.63
47716;BME280;33476;50.984;3.538;2022-09-14T01:05:15;100742.03;;;20.60;70.51
47716;BME280;33476;50.984;3.538;2022-09-14T01:07:46;100742.03;;;20.60;70.44
47716;BME280;33476;50.984;3.538;2022-09-14T01:18:28;100750.00;;;20.51;70.34
47716;BME280;33476;50.984;3.538;2022-09-14T01:24:15;100750.16;;;20.49;70.22
47716;BME280;33476;50.984;3.538;2022-09-14T01:26:45;100747.63;;;20.47;70.58
47716;BME280;33476;50.984;3.538;2022-09-14T01:29:29;100750.97;;;20.50;70.61
47716;BME280;33476;50.984;3.538;2022-09-14T01:32:04;100743.84;;;20.50;70.71
47716;BME280;33476;50.984;3.538;2022-09-14T01:35:00;100750.28;;;20.47;70.81
47716;BME280;33476;50.984;3.538;2022-09-14T01:37:32;100750.84;;;20.51;70.22
47716;BME280;33476;50.984;3.538;2022-09-14T01:40:11;100743.72;;;20.52;70.33
47716;BME280;33476;50.984;3.538;2022-09-14T01:42:41;100743.72;;;20.52;70.39
47716;BME280;33476;50.984;3.538;2022-09-14T01:45:09;100741.22;;;20.50;70.71
47716;BME280;33476;50.984;3.538;2022-09-14T01:47:52;100749.13;;;20.40;71.10
47716;BME280;33476;50.984;3.538;2022-09-14T01:50:36;100746.63;;;20.39;71.24
47716;BME280;33476;50.984;3.538;2022-09-14T01:53:13;100745.66;;;20.40;71.03
47716;BME280;33476;50.984;3.538;2022-09-14T01:58:17;100747.94;;;20.44;70.75
47716;BME280;33476;50.984;3.538;2022-09-14T02:00:45;100751.81;;;20.50;70.36
47716;BME280;33476;50.984;3.538;2022-09-14T02:03:15;100754.63;;;20.48;70.60
47716;BME280;33476;50.984;3.538;2022-09-14T02:06:18;100749.81;;;20.42;70.62
47716;BME280;33476;50.984;3.538;2022-09-14T02:08:46;100744.97;;;20.47;70.25
47716;BME280;33476;50.984;3.538;2022-09-14T02:11:14;100740.81;;;20.45;70.51
47716;BME280;33476;50.984;3.538;2022-09-14T02:13:39;100736.34;;;20.45;70.33
47716;BME280;33476;50.984;3.538;2022-09-14T02:16:05;100741.88;;;20.42;70.50
47716;BME280;33476;50.984;3.538;2022-09-14T02:18:30;100748.00;;;20.43;70.64
47716;BME280;33476;50.984;3.538;2022-09-14T02:21:00;100733.50;;;20.37;70.68
47716;BME280;33476;50.984;3.538;2022-09-14T02:23:27;100736.84;;;20.39;70.60
47716;BME280;33476;50.984;3.538;2022-09-14T02:25:52;100741.47;;;20.37;70.47
47716;BME280;33476;50.984;3.538;2022-09-14T02:28:18;100736.41;;;20.34;70.70
47716;BME280;33476;50.984;3.538;2022-09-14T02:34:01;100731.69;;;20.38;70.39
47716;BME280;33476;50.984;3.538;2022-09-14T02:39:34;100724.00;;;20.35;70.29
47716;BME280;33476;50.984;3.538;2022-09-14T02:42:35;100728.31;;;20.26;70.99
47716;BME280;33476;50.984;3.538;2022-09-14T02:45:10;100718.13;;;20.31;70.59
47716;BME280;33476;50.984;3.538;2022-09-14T02:48:04;100720.09;;;20.29;70.76
47716;BME280;33476;50.984;3.538;2022-09-14T02:50:36;100719.81;;;20.42;70.25
47716;BME280;33476;50.984;3.538;2022-09-14T02:53:09;100714.78;;;20.39;69.96
47716;BME280;33476;50.984;3.538;2022-09-14T02:55:40;100711.84;;;20.32;70.40
47716;BME280;33476;50.984;3.538;2022-09-14T02:58:12;100718.81;;;20.24;70.64
47716;BME280;33476;50.984;3.538;2022-09-14T03:00:42;100722.47;;;20.23;70.61
47716;BME280;33476;50.984;3.538;2022-09-14T03:03:10;100718.44;;;20.28;70.32
47716;BME280;33476;50.984;3.538;2022-09-14T03:05:36;100719.94;;;20.21;70.88
47716;BME280;33476;50.984;3.538;2022-09-14T03:08:02;100719.38;;;20.17;71.35
47716;BME280;33476;50.984;3.538;2022-09-14T03:10:29;100723.69;;;20.18;71.59
47716;BME280;33476;50.984;3.538;2022-09-14T03:12:55;100714.78;;;20.19;71.53
47716;BME280;33476;50.984;3.538;2022-09-14T03:15:20;100704.03;;;20.21;71.23
47716;BME280;33476;50.984;3.538;2022-09-14T03:17:47;100702.22;;;20.22;71.05
47716;BME280;33476;50.984;3.538;2022-09-14T03:20:19;100690.91;;;20.19;71.07
47716;BME280;33476;50.984;3.538;2022-09-14T03:22:45;100694.53;;;20.18;70.92
47716;BME280;33476;50.984;3.538;2022-09-14T03:25:12;100699.13;;;20.16;71.27
47716;BME280;33476;50.984;3.538;2022-09-14T03:27:38;100701.78;;;20.16;71.53
47716;BME280;33476;50.984;3.538;2022-09-14T03:30:04;100700.13;;;20.15;71.32
47716;BME280;33476;50.984;3.538;2022-09-14T03:32:30;100700.25;;;20.14;71.20
47716;BME280;33476;50.984;3.538;2022-09-14T03:34:56;100705.41;;;20.15;71.29
47716;BME280;33476;50.984;3.538;2022-09-14T03:37:22;100700.94;;;20.16;71.21
47716;BME280;33476;50.984;3.538;2022-09-14T03:39:48;100704.59;;;20.15;71.19
47716;BME280;33476;50.984;3.538;2022-09-14T03:42:13;100701.94;;;20.15;71.14
47716;BME280;33476;50.984;3.538;2022-09-14T03:44:38;100692.16;;;20.15;71.24
47716;BME280;33476;50.984;3.538;2022-09-14T03:47:04;100695.09;;;20.12;71.13
47716;BME280;33476;50.984;3.538;2022-09-14T03:49:30;100694.66;;;20.07;71.30
47716;BME280;33476;50.984;3.538;2022-09-14T03:51:55;100687.13;;;20.03;71.23
47716;BME280;33476;50.984;3.538;2022-09-14T03:54:20;100687.97;;;20.03;71.49
47716;BME280;33476;50.984;3.538;2022-09-14T03:56:46;100680.72;;;20.05;71.32
47716;BME280;33476;50.984;3.538;2022-09-14T03:59:11;100679.19;;;20.03;71.58
47716;BME280;33476;50.984;3.538;2022-09-14T04:01:36;100679.28;;;20.01;71.66
47716;BME280;33476;50.984;3.538;2022-09-14T04:04:02;100673.75;;;20.04;71.58
47716;BME280;33476;50.984;3.538;2022-09-14T04:06:28;100667.31;;;20.07;71.38
47716;BME280;33476;50.984;3.538;2022-09-14T04:08:53;100668.16;;;20.07;71.59
47716;BME280;33476;50.984;3.538;2022-09-14T04:11:22;100671.22;;;20.03;71.51
47716;BME280;33476;50.984;3.538;2022-09-14T04:13:49;100672.19;;;20.02;71.46
47716;BME280;33476;50.984;3.538;2022-09-14T04:16:16;100673.31;;;19.99;71.62
47716;BME280;33476;50.984;3.538;2022-09-14T04:18:42;100668.28;;;19.96;71.80
47716;BME280;33476;50.984;3.538;2022-09-14T04:21:17;100666.88;;;19.92;71.83
47716;BME280;33476;50.984;3.538;2022-09-14T04:23:45;100667.56;;;19.94;71.93
47716;BME280;33476;50.984;3.538;2022-09-14T04:26:16;100667.72;;;19.92;71.78
47716;BME280;33476;50.984;3.538;2022-09-14T04:28:42;100661.31;;;19.95;71.97
47716;BME280;33476;50.984;3.538;2022-09-14T04:31:09;100640.50;;;19.90;72.14
47716;BME280;33476;50.984;3.538;2022-09-14T04:33:35;100626.41;;;19.90;72.10
47716;BME280;33476;50.984;3.538;2022-09-14T04:36:13;100605.75;;;19.84;72.21
47716;BME280;33476;50.984;3.538;2022-09-14T04:38:40;100617.09;;;19.86;72.23
47716;BME280;33476;50.984;3.538;2022-09-14T04:41:08;100614.84;;;19.81;72.35
47716;BME280;33476;50.984;3.538;2022-09-14T04:43:34;100609.69;;;19.80;72.32
47716;BME280;33476;50.984;3.538;2022-09-14T04:46:11;100603.38;;;19.71;72.84
47716;BME280;33476;50.984;3.538;2022-09-14T04:48:37;100610.38;;;19.72;72.81
47716;BME280;33476;50.984;3.538;2022-09-14T04:51:04;100607.13;;;19.69;72.88
47716;BME280;33476;50.984;3.538;2022-09-14T04:53:32;100612.56;;;19.67;72.90
47716;BME280;33476;50.984;3.538;2022-09-14T04:55:59;100618.16;;;19.74;72.29
47716;BME280;33476;50.984;3.538;2022-09-14T04:58:28;100615.38;;;19.75;72.30
47716;BME280;33476;50.984;3.538;2022-09-14T05:00:59;100612.88;;;19.74;72.40
47716;BME280;33476;50.984;3.538;2022-09-14T05:03:24;100607.03;;;19.70;72.50
47716;BME280;33476;50.984;3.538;2022-09-14T05:05:50;100606.03;;;19.71;72.51
47716;BME280;33476;50.984;3.538;2022-09-14T05:08:15;100608.69;;;19.71;72.35
47716;BME280;33476;50.984;3.538;2022-09-14T05:10:40;100595.59;;;19.70;72.06
47716;BME280;33476;50.984;3.538;2022-09-14T05:13:06;100594.72;;;19.69;72.16
47716;BME280;33476;50.984;3.538;2022-09-14T05:15:31;100600.31;;;19.66;72.34
47716;BME280;33476;50.984;3.538;2022-09-14T05:17:57;100600.16;;;19.58;72.54
47716;BME280;33476;50.984;3.538;2022-09-14T05:20:22;100602.34;;;19.53;72.91
47716;BME280;33476;50.984;3.538;2022-09-14T05:22:49;100596.19;;;19.52;72.89
47716;BME280;33476;50.984;3.538;2022-09-14T05:25:15;100601.38;;;19.54;72.87
47716;BME280;33476;50.984;3.538;2022-09-14T05:27:40;100594.41;;;19.53;72.82
47716;BME280;33476;50.984;3.538;2022-09-14T05:30:06;100598.84;;;19.52;72.93
47716;BME280;33476;50.984;3.538;2022-09-14T05:32:32;100598.00;;;19.52;72.94
47716;BME280;33476;50.984;3.538;2022-09-14T05:34:57;100597.06;;;19.53;72.92
47716;BME280;33476;50.984;3.538;2022-09-14T05:37:24;100596.78;;;19.56;72.84
47716;BME280;33476;50.984;3.538;2022-09-14T05:39:52;100600.97;;;19.58;72.98
47716;BME280;33476;50.984;3.538;2022-09-14T05:42:17;100594.13;;;19.56;72.94
47716;BME280;33476;50.984;3.538;2022-09-14T05:44:43;100587.88;;;19.57;73.20
47716;BME280;33476;50.984;3.538;2022-09-14T05:47:08;100588.81;;;19.56;73.24
47716;BME280;33476;50.984;3.538;2022-09-14T05:49:33;100584.66;;;19.53;73.59
47716;BME280;33476;50.984;3.538;2022-09-14T05:51:59;100573.22;;;19.53;73.23
47716;BME280;33476;50.984;3.538;2022-09-14T05:54:24;100565.66;;;19.48;73.51
47716;BME280;33476;50.984;3.538;2022-09-14T05:56:49;100562.88;;;19.50;73.67
47716;BME280;33476;50.984;3.538;2022-09-14T05:59:15;100562.63;;;19.53;73.39
47716;BME280;33476;50.984;3.538;2022-09-14T06:01:40;100561.34;;;19.47;73.83
47716;BME280;33476;50.984;3.538;2022-09-14T06:04:05;100563.03;;;19.48;73.79
47716;BME280;33476;50.984;3.538;2022-09-14T06:06:32;100566.50;;;19.49;74.05
47716;BME280;33476;50.984;3.538;2022-09-14T06:08:58;100573.63;;;19.48;73.95
47716;BME280;33476;50.984;3.538;2022-09-14T06:11:28;100580.72;;;19.48;74.07
47716;BME280;33476;50.984;3.538;2022-09-14T06:13:55;100571.09;;;19.47;73.95
47716;BME280;33476;50.984;3.538;2022-09-14T06:16:22;100570.28;;;19.46;73.81
47716;BME280;33476;50.984;3.538;2022-09-14T06:18:49;100577.38;;;19.46;74.04
47716;BME280;33476;50.984;3.538;2022-09-14T06:21:17;100574.00;;;19.44;74.43
47716;BME280;33476;50.984;3.538;2022-09-14T06:23:43;100572.91;;;19.46;74.40
47716;BME280;33476;50.984;3.538;2022-09-14T06:26:09;100584.75;;;19.42;74.48
47716;BME280;33476;50.984;3.538;2022-09-14T06:28:35;100582.63;;;19.36;74.39
47716;BME280;33476;50.984;3.538;2022-09-14T06:31:01;100591.31;;;19.38;74.53
47716;BME280;33476;50.984;3.538;2022-09-14T06:33:32;100587.41;;;19.42;74.40
47716;BME280;33476;50.984;3.538;2022-09-14T06:36:03;100597.00;;;19.43;74.45
47716;BME280;33476;50.984;3.538;2022-09-14T06:38:29;100594.13;;;19.46;74.57
47716;BME280;33476;50.984;3.538;2022-09-14T06:40:56;100599.81;;;19.42;74.48
47716;BME280;33476;50.984;3.538;2022-09-14T06:43:26;100598.41;;;19.38;74.67
47716;BME280;33476;50.984;3.538;2022-09-14T06:45:58;100594.66;;;19.40;74.66
47716;BME280;33476;50.984;3.538;2022-09-14T06:48:25;100591.19;;;19.49;74.77
47716;BME280;33476;50.984;3.538;2022-09-14T06:50:50;100585.34;;;19.46;74.64
47716;BME280;33476;50.984;3.538;2022-09-14T06:53:16;100584.34;;;19.47;74.83
47716;BME280;33476;50.984;3.538;2022-09-14T06:55:41;100579.06;;;19.47;74.34
47716;BME280;33476;50.984;3.538;2022-09-14T06:58:09;100574.28;;;19.41;74.94
47716;BME280;33476;50.984;3.538;2022-09-14T07:00:34;100573.59;;;19.39;74.87
47716;BME280;33476;50.984;3.538;2022-09-14T07:03:00;100566.50;;;19.39;74.93
47716;BME280;33476;50.984;3.538;2022-09-14T07:05:25;100580.56;;;19.40;74.88
47716;BME280;33476;50.984;3.538;2022-09-14T07:07:51;100585.88;;;19.40;74.87
47716;BME280;33476;50.984;3.538;2022-09-14T07:10:17;100588.06;;;19.34;74.71
47716;BME280;33476;50.984;3.538;2022-09-14T07:12:43;100585.00;;;19.29;75.12
47716;BME280;33476;50.984;3.538;2022-09-14T07:15:09;100576.78;;;19.32;75.35
47716;BME280;33476;50.984;3.538;2022-09-14T07:17:34;100581.38;;;19.30;75.35
47716;BME280;33476;50.984;3.538;2022-09-14T07:20:02;100583.91;;;19.32;75.38
47716;BME280;33476;50.984;3.538;2022-09-14T07:22:32;100586.69;;;19.30;75.34
47716;BME280;33476;50.984;3.538;2022-09-14T07:24:57;100592.66;;;19.32;75.56
47716;BME280;33476;50.984;3.538;2022-09-14T07:27:22;100596.44;;;19.30;75.42
47716;BME280;33476;50.984;3.538;2022-09-14T07:29:48;100601.59;;;19.31;75.00
47716;BME280;33476;50.984;3.538;2022-09-14T07:32:13;100596.44;;;19.30;75.39
47716;BME280;33476;50.984;3.538;2022-09-14T07:34:38;100601.31;;;19.34;75.26
47716;BME280;33476;50.984;3.538;2022-09-14T07:37:04;100612.50;;;19.38;75.15
47716;BME280;33476;50.984;3.538;2022-09-14T07:39:29;100606.91;;;19.41;75.34
47716;BME280;33476;50.984;3.538;2022-09-14T07:41:54;100609.69;;;19.40;75.13
47716;BME280;33476;50.984;3.538;2022-09-14T07:44:19;100611.38;;;19.41;75.46
47716;BME280;33476;50.984;3.538;2022-09-14T07:46:45;100617.50;;;19.41;75.27
47716;BME280;33476;50.984;3.538;2022-09-14T07:49:12;100619.19;;;19.42;75.88
47716;BME280;33476;50.984;3.538;2022-09-14T07:51:38;100615.31;;;19.46;75.95
47716;BME280;33476;50.984;3.538;2022-09-14T07:54:06;100607.59;;;19.43;76.06
47716;BME280;33476;50.984;3.538;2022-09-14T07:56:32;100614.72;;;19.43;75.91
47716;BME280;33476;50.984;3.538;2022-09-14T07:58:59;100612.78;;;19.45;75.75
47716;BME280;33476;50.984;3.538;2022-09-14T08:01:25;100612.78;;;19.45;76.12
47716;BME280;33476;50.984;3.538;2022-09-14T08:03:54;100611.09;;;19.44;76.01
47716;BME280;33476;50.984;3.538;2022-09-14T08:06:22;100613.75;;;19.44;76.08
47716;BME280;33476;50.984;3.538;2022-09-14T08:08:49;100608.59;;;19.42;76.02
47716;BME280;33476;50.984;3.538;2022-09-14T08:11:23;100606.34;;;19.38;76.37
47716;BME280;33476;50.984;3.538;2022-09-14T08:14:05;100604.53;;;19.38;76.41
47716;BME280;33476;50.984;3.538;2022-09-14T08:16:32;100602.44;;;19.42;75.96
47716;BME280;33476;50.984;3.538;2022-09-14T08:19:00;100600.09;;;19.39;75.93
47716;BME280;33476;50.984;3.538;2022-09-14T08:21:28;100595.63;;;19.39;76.28
47716;BME280;33476;50.984;3.538;2022-09-14T08:23:54;100584.88;;;19.41;76.06
47716;BME280;33476;50.984;3.538;2022-09-14T08:26:24;100577.91;;;19.40;76.08
47716;BME280;33476;50.984;3.538;2022-09-14T08:28:51;100572.91;;;19.36;76.36
47716;BME280;33476;50.984;3.538;2022-09-14T08:31:19;100574.81;;;19.34;76.72
47716;BME280;33476;50.984;3.538;2022-09-14T08:33:47;100575.94;;;19.32;76.70
47716;BME280;33476;50.984;3.538;2022-09-14T08:36:15;100585.13;;;19.28;76.62
47716;BME280;33476;50.984;3.538;2022-09-14T08:38:41;100588.63;;;19.28;76.96
47716;BME280;33476;50.984;3.538;2022-09-14T08:43:41;100594.19;;;19.35;76.61
47716;BME280;33476;50.984;3.538;2022-09-14T08:46:14;100596.28;;;19.31;76.71
47716;BME280;33476;50.984;3.538;2022-09-14T08:48:46;100598.66;;;19.34;76.68
47716;BME280;33476;50.984;3.538;2022-09-14T08:51:12;100599.66;;;19.33;76.29
47716;BME280;33476;50.984;3.538;2022-09-14T08:53:39;100596.28;;;19.31;76.70
47716;BME280;33476;50.984;3.538;2022-09-14T08:56:12;100586.41;;;19.33;76.53
47716;BME280;33476;50.984;3.538;2022-09-14T09:01:19;100590.75;;;19.44;76.22
47716;BME280;33476;50.984;3.538;2022-09-14T09:09:43;100591.44;;;19.36;76.46
47716;BME280;33476;50.984;3.538;2022-09-14T09:12:16;100594.34;;;19.33;76.74
47716;BME280;33476;50.984;3.538;2022-09-14T09:14:46;100596.75;;;19.36;76.55
47716;BME280;33476;50.984;3.538;2022-09-14T09:17:19;100602.72;;;19.39;76.55
47716;BME280;33476;50.984;3.538;2022-09-14T09:20:03;100609.56;;;19.41;76.50
47716;BME280;33476;50.984;3.538;2022-09-14T09:22:38;100610.56;;;19.50;76.23
47716;BME280;33476;50.984;3.538;2022-09-14T09:25:15;100610.69;;;19.48;76.43
47716;BME280;33476;50.984;3.538;2022-09-14T09:27:41;100615.31;;;19.56;76.41
47716;BME280;33476;50.984;3.538;2022-09-14T09:30:11;100617.53;;;19.51;76.57
47716;BME280;33476;50.984;3.538;2022-09-14T09:32:36;100623.16;;;19.57;76.22
47716;BME280;33476;50.984;3.538;2022-09-14T09:35:04;100620.63;;;19.56;75.73
47716;BME280;33476;50.984;3.538;2022-09-14T09:37:33;100626.91;;;19.55;76.02
47716;BME280;33476;50.984;3.538;2022-09-14T09:40:02;100624.97;;;19.57;76.17
47716;BME280;33476;50.984;3.538;2022-09-14T09:42:30;100630.38;;;19.55;76.02
47716;BME280;33476;50.984;3.538;2022-09-14T09:45:05;100623.66;;;19.51;75.89
47716;BME280;33476;50.984;3.538;2022-09-14T09:47:36;100620.31;;;19.49;75.94
47716;BME280;33476;50.984;3.538;2022-09-14T09:50:22;100610.97;;;19.45;76.17
47716;BME280;33476;50.984;3.538;2022-09-14T09:52:52;100605.94;;;19.52;76.07
47716;BME280;33476;50.984;3.538;2022-09-14T09:55:20;100613.22;;;19.50;76.39
47716;BME280;33476;50.984;3.538;2022-09-14T09:57:46;100615.03;;;19.49;76.16
47716;BME280;33476;50.984;3.538;2022-09-14T10:00:23;100612.91;;;19.43;76.08
47716;BME280;33476;50.984;3.538;2022-09-14T10:02:49;100614.47;;;19.46;75.93
47716;BME280;33476;50.984;3.538;2022-09-14T10:10:16;100597.44;;;19.48;76.09
47716;BME280;33476;50.984;3.538;2022-09-14T10:12:49;100590.88;;;19.43;76.51
47716;BME280;33476;50.984;3.538;2022-09-14T10:18:04;100591.72;;;19.43;76.31
47716;BME280;33476;50.984;3.538;2022-09-14T10:20:31;100604.13;;;19.52;76.18
47716;BME280;33476;50.984;3.538;2022-09-14T10:23:20;100604.44;;;19.49;76.59
47716;BME280;33476;50.984;3.538;2022-09-14T10:25:48;100611.00;;;19.55;75.88
47716;BME280;33476;50.984;3.538;2022-09-14T10:28:34;100610.69;;;19.48;76.39
47716;BME280;33476;50.984;3.538;2022-09-14T10:31:03;100605.25;;;19.50;75.93
47716;BME280;33476;50.984;3.538;2022-09-14T10:33:31;100606.38;;;19.47;75.99
47716;BME280;33476;50.984;3.538;2022-09-14T10:38:47;100595.94;;;19.55;76.12
47716;BME280;33476;50.984;3.538;2022-09-14T10:44:06;100603.06;;;19.55;75.97
47716;BME280;33476;50.984;3.538;2022-09-14T10:47:13;100604.88;;;19.54;76.08
47716;BME280;33476;50.984;3.538;2022-09-14T10:50:21;100595.34;;;19.52;76.14
47716;BME280;33476;50.984;3.538;2022-09-14T10:53:02;100604.13;;;19.52;76.08
47716;BME280;33476;50.984;3.538;2022-09-14T10:55:45;100596.19;;;19.52;75.90
47716;BME280;33476;50.984;3.538;2022-09-14T11:04:20;100582.69;;;19.55;75.84
47716;BME280;33476;50.984;3.538;2022-09-14T11:07:01;100588.97;;;19.54;76.20
47716;BME280;33476;50.984;3.538;2022-09-14T11:12:05;100572.25;;;19.54;76.27
47716;BME280;33476;50.984;3.538;2022-09-14T11:15:22;100580.78;;;19.67;75.57
47716;BME280;33476;50.984;3.538;2022-09-14T11:23:01;100579.47;;;19.52;75.50
47716;BME280;33476;50.984;3.538;2022-09-14T11:25:53;100591.19;;;19.49;75.66
47716;BME280;33476;50.984;3.538;2022-09-14T11:28:33;100587.16;;;19.45;75.50
47716;BME280;33476;50.984;3.538;2022-09-14T11:36:20;100602.59;;;19.40;75.52
47716;BME280;33476;50.984;3.538;2022-09-14T11:38:52;100606.91;;;19.41;75.62
47716;BME280;33476;50.984;3.538;2022-09-14T11:44:14;100605.38;;;19.39;75.96
47716;BME280;33476;50.984;3.538;2022-09-14T11:46:48;100614.16;;;19.39;75.90
47716;BME280;33476;50.984;3.538;2022-09-14T11:54:28;100610.53;;;19.40;75.46
47716;BME280;33476;50.984;3.538;2022-09-14T11:56:59;100613.84;;;19.32;75.77
47716;BME280;33476;50.984;3.538;2022-09-14T12:12:40;100620.13;;;19.31;74.69
47716;BME280;33476;50.984;3.538;2022-09-14T12:17:51;100616.78;;;19.29;74.81
47716;BME280;33476;50.984;3.538;2022-09-14T12:20:37;100604.22;;;19.22;75.24
47716;BME280;33476;50.984;3.538;2022-09-14T12:26:00;100609.69;;;19.30;75.03
47716;BME280;33476;50.984;3.538;2022-09-14T12:28:36;100607.72;;;19.32;74.89
47716;BME280;33476;50.984;3.538;2022-09-14T12:41:56;100592.81;;;19.31;75.16
47716;BME280;33476;50.984;3.538;2022-09-14T12:51:20;100582.75;;;19.25;75.37
47716;BME280;33476;50.984;3.538;2022-09-14T13:02:00;100592.38;;;19.26;75.57
47716;BME280;33476;50.984;3.538;2022-09-14T13:04:36;100584.88;;;19.31;75.26
47716;BME280;33476;50.984;3.538;2022-09-14T13:07:15;100586.00;;;19.28;75.58
47716;BME280;33476;50.984;3.538;2022-09-14T13:09:50;100582.47;;;19.28;74.90
47716;BME280;33476;50.984;3.538;2022-09-14T13:12:38;100575.22;;;19.20;75.40
47716;BME280;33476;50.984;3.538;2022-09-14T13:18:38;100573.66;;;19.18;75.25
47716;BME280;33476;50.984;3.538;2022-09-14T13:20:39;100575.66;;;19.25;75.28
47716;BME280;33476;50.984;3.538;2022-09-14T13:23:18;100571.59;;;19.21;75.52
47716;BME280;33476;50.984;3.538;2022-09-14T13:25:44;100560.34;;;19.29;75.38
47716;BME280;33476;50.984;3.538;2022-09-14T13:28:16;100560.72;;;19.24;75.41
47716;BME280;33476;50.984;3.538;2022-09-14T13:30:53;100554.59;;;19.24;75.67
47716;BME280;33476;50.984;3.538;2022-09-14T13:33:19;100546.66;;;19.24;75.61
47716;BME280;33476;50.984;3.538;2022-09-14T13:35:51;100543.47;;;19.20;75.99
47716;BME280;33476;50.984;3.538;2022-09-14T13:38:22;100543.63;;;19.28;75.41
47716;BME280;33476;50.984;3.538;2022-09-14T13:40:50;100543.19;;;19.33;75.41
47716;BME280;33476;50.984;3.538;2022-09-14T13:43:18;100548.50;;;19.33;75.40
47716;BME280;33476;50.984;3.538;2022-09-14T13:45:45;100540.69;;;19.31;75.28
47716;BME280;33476;50.984;3.538;2022-09-14T13:48:15;100540.41;;;19.34;75.11
47716;BME280;33476;50.984;3.538;2022-09-14T13:50:43;100541.91;;;19.27;75.02
47716;BME280;33476;50.984;3.538;2022-09-14T13:53:50;100537.47;;;19.28;75.42
47716;BME280;33476;50.984;3.538;2022-09-14T13:56:26;100546.53;;;19.35;74.91
47716;BME280;33476;50.984;3.538;2022-09-14T13:59:17;100554.06;;;19.30;75.04
47716;BME280;33476;50.984;3.538;2022-09-14T14:01:58;100546.53;;;19.25;75.10
47716;BME280;33476;50.984;3.538;2022-09-14T14:04:33;100536.63;;;19.27;75.12
47716;BME280;33476;50.984;3.538;2022-09-14T14:07:18;100530.25;;;19.30;74.78
47716;BME280;33476;50.984;3.538;2022-09-14T14:09:53;100529.25;;;19.31;74.66
47716;BME280;33476;50.984;3.538;2022-09-14T14:12:28;100530.09;;;19.31;74.65
47716;BME280;33476;50.984;3.538;2022-09-14T14:14:59;100532.75;;;19.31;74.84
47716;BME280;33476;50.984;3.538;2022-09-14T14:19:52;100537.22;;;19.31;75.09
47716;BME280;33476;50.984;3.538;2022-09-14T14:22:31;100548.63;;;19.31;74.88
47716;BME280;33476;50.984;3.538;2022-09-14T14:24:56;100551.13;;;19.33;74.62
47716;BME280;33476;50.984;3.538;2022-09-14T14:27:34;100563.69;;;19.31;74.61
47716;BME280;33476;50.984;3.538;2022-09-14T14:30:02;100560.06;;;19.32;74.23
47716;BME280;33476;50.984;3.538;2022-09-14T14:32:28;100558.25;;;19.32;74.75
47716;BME280;33476;50.984;3.538;2022-09-14T14:34:56;100553.94;;;19.31;74.49
47716;BME280;33476;50.984;3.538;2022-09-14T14:37:21;100558.09;;;19.34;74.58
47716;BME280;33476;50.984;3.538;2022-09-14T14:39:47;100548.19;;;19.36;74.38
47716;BME280;33476;50.984;3.538;2022-09-14T14:42:14;100553.41;;;19.38;74.28
47716;BME280;33476;50.984;3.538;2022-09-14T14:44:41;100553.41;;;19.38;74.32
47716;BME280;33476;50.984;3.538;2022-09-14T14:47:06;100551.84;;;19.35;74.52
47716;BME280;33476;50.984;3.538;2022-09-14T14:49:32;100539.28;;;19.27;74.63
47716;BME280;33476;50.984;3.538;2022-09-14T14:51:57;100542.34;;;19.23;74.58
47716;BME280;33476;50.984;3.538;2022-09-14T14:54:23;100537.19;;;19.21;74.59
47716;BME280;33476;50.984;3.538;2022-09-14T14:56:49;100541.75;;;19.19;74.58
47716;BME280;33476;50.984;3.538;2022-09-14T14:59:24;100545.66;;;19.15;74.71
47716;BME280;33476;50.984;3.538;2022-09-14T15:01:51;100543.47;;;19.20;74.61
47716;BME280;33476;50.984;3.538;2022-09-14T15:04:17;100551.13;;;19.23;74.73
47716;BME280;33476;50.984;3.538;2022-09-14T15:06:44;100549.31;;;19.24;74.92